Time;durP1;ratioP1;P1;durP2;ratioP2;P2;SDS_P1;SDS_P2;PMS_P1;PMS_P2;Temp;Humidity;BMP_temperature;BMP_pressure;BME280_temperature;BME280_humidity;BME280_pressure;Samples;Min_cycle;Max_cycle;Signal;HPM_P1;HPM_P2
2023/02/07 00:00:09;;;;;;;54.80;19.70;;;;;;;;;;5014880;28;20125;-81
2023/02/07 00:02:34;;;;;;;59.23;20.63;;;;;;;;;;5015389;28;20044;-82
2023/02/07 00:05:00;;;;;;;51.03;21.63;;;;;;;;;;5014367;28;20033;-79
2023/02/07 00:07:26;;;;;;;58.17;22.30;;;;;;;;;;5015089;28;20025;-79
2023/02/07 00:09:51;;;;;;;51.70;20.40;;;;;;;;;;5015348;28;20022;-80
2023/02/07 00:12:17;;;;;;;45.87;20.67;;;;;;;;;;5036344;28;20136;-80
2023/02/07 00:14:42;;;;;;;54.67;20.97;;;;;;;;;;5035951;28;20033;-81
2023/02/07 00:17:08;;;;;;;50.77;20.53;;;;;;;;;;5035317;28;20056;-80
2023/02/07 00:19:33;;;;;;;47.23;19.40;;;;;;;;;;5034353;28;20064;-81
2023/02/07 00:21:59;;;;;;;48.93;19.73;;;;;;;;;;5033412;28;20318;-80
2023/02/07 00:24:25;;;;;;;40.33;18.67;;;;;;;;;;5035469;28;20030;-81
2023/02/07 00:26:52;;;;;;;52.17;20.40;;;;;;;;;;5033961;28;20390;-81
2023/02/07 00:29:18;;;;;;;52.70;19.70;;;;;;;;;;5034404;28;20028;-81
2023/02/07 00:31:44;;;;;;;45.33;19.90;;;;;;;;;;5035762;28;20085;-79
2023/02/07 00:34:10;;;;;;;51.20;18.97;;;;;;;;;;5035214;28;20485;-80
2023/02/07 00:36:36;;;;;;;53.87;19.57;;;;;;;;;;5035047;28;20084;-80
2023/02/07 00:39:13;;;;;;;52.67;19.53;;;;;;;;;;5034331;28;20056;-80
2023/02/07 00:41:40;;;;;;;44.60;20.03;;;;;;;;;;5032686;28;20082;-81
2023/02/07 00:44:06;;;;;;;50.63;20.13;;;;;;;;;;5033166;28;20141;-79
2023/02/07 00:46:32;;;;;;;52.37;21.13;;;;;;;;;;5033267;28;20111;-82
2023/02/07 00:48:58;;;;;;;57.93;20.33;;;;;;;;;;5033011;28;20013;-81
2023/02/07 00:51:24;;;;;;;52.93;21.23;;;;;;;;;;5033490;28;20032;-80
2023/02/07 00:53:53;;;;;;;50.80;21.47;;;;;;;;;;5033747;28;20034;-80
2023/02/07 00:56:19;;;;;;;49.50;20.00;;;;;;;;;;5033337;28;20034;-79
2023/02/07 00:58:46;;;;;;;58.23;23.07;;;;;;;;;;5033301;28;20029;-80
2023/02/07 01:01:12;;;;;;;67.17;22.97;;;;;;;;;;5034950;28;20481;-79
2023/02/07 01:03:38;;;;;;;55.23;23.60;;;;;;;;;;5033057;28;20029;-79
2023/02/07 01:06:04;;;;;;;54.50;23.30;;;;;;;;;;5034725;28;20504;-78
2023/02/07 01:08:30;;;;;;;63.13;25.63;;;;;;;;;;5032811;28;20068;-80
2023/02/07 01:10:56;;;;;;;60.17;22.77;;;;;;;;;;5033950;28;20071;-79
2023/02/07 01:13:22;;;;;;;58.60;24.47;;;;;;;;;;5033133;28;20034;-80
2023/02/07 01:15:48;;;;;;;51.90;22.03;;;;;;;;;;5034429;28;20064;-80
2023/02/07 01:18:14;;;;;;;58.00;23.47;;;;;;;;;;5016592;28;20235;-80
2023/02/07 01:20:41;;;;;;;56.23;24.17;;;;;;;;;;5032913;28;20041;-80
2023/02/07 01:23:06;;;;;;;52.97;23.67;;;;;;;;;;5032363;28;20034;-80
2023/02/07 01:25:32;;;;;;;50.03;22.87;;;;;;;;;;5033665;28;20545;-81
2023/02/07 01:27:58;;;;;;;62.97;25.67;;;;;;;;;;5032995;28;20033;-81
2023/02/07 01:30:23;;;;;;;65.20;25.53;;;;;;;;;;5034283;28;20500;-80
2023/02/07 01:32:49;;;;;;;57.03;23.40;;;;;;;;;;5032867;28;20037;-82
2023/02/07 01:35:15;;;;;;;64.57;25.83;;;;;;;;;;5033701;28;20488;-80
2023/02/07 01:37:41;;;;;;;59.70;24.87;;;;;;;;;;5030867;28;20041;-79
2023/02/07 01:40:10;;;;;;;63.90;27.63;;;;;;;;;;5013711;28;20418;-81
2023/02/07 01:42:36;;;;;;;57.63;26.17;;;;;;;;;;5012767;28;20038;-80
2023/02/07 01:45:28;;;;;;;60.30;23.70;;;;;;;;;;5012166;28;20028;-79
2023/02/07 01:47:58;;;;;;;57.67;24.33;;;;;;;;;;5013749;28;20037;-79
2023/02/07 01:50:24;;;;;;;70.97;24.87;;;;;;;;;;5012694;28;20048;-81
2023/02/07 01:52:50;;;;;;;61.53;25.17;;;;;;;;;;5013233;28;20362;-79
2023/02/07 01:55:21;;;;;;;64.33;28.03;;;;;;;;;;5013999;28;20030;-81
2023/02/07 01:57:47;;;;;;;67.63;27.67;;;;;;;;;;5012810;28;20037;-82
2023/02/07 02:00:15;;;;;;;59.87;26.00;;;;;;;;;;5013903;28;20427;-82
2023/02/07 02:02:41;;;;;;;60.93;26.67;;;;;;;;;;5013908;28;20269;-80
2023/02/07 02:05:09;;;;;;;64.87;26.47;;;;;;;;;;5013442;28;20034;-80
2023/02/07 02:07:36;;;;;;;71.27;27.40;;;;;;;;;;5011376;28;20055;-79
2023/02/07 02:10:04;;;;;;;65.57;26.80;;;;;;;;;;5011427;28;20061;-79
2023/02/07 02:12:39;;;;;;;70.43;26.50;;;;;;;;;;5012224;28;20026;-79
2023/02/07 02:15:29;;;;;;;62.33;26.30;;;;;;;;;;5014218;28;20030;-79
2023/02/07 02:18:10;;;;;;;61.63;25.43;;;;;;;;;;5012050;28;20026;-79
2023/02/07 02:20:39;;;;;;;62.23;25.00;;;;;;;;;;5012634;28;20095;-81
2023/02/07 02:23:34;;;;;;;55.50;23.57;;;;;;;;;;5011740;28;20075;-78
2023/02/07 02:26:33;;;;;;;56.63;28.13;;;;;;;;;;5015528;28;20052;-80
2023/02/07 02:29:28;;;;;;;67.93;25.40;;;;;;;;;;5015431;28;20297;-79
2023/02/07 02:32:31;;;;;;;57.30;27.00;;;;;;;;;;5016751;28;20033;-81
2023/02/07 02:35:26;;;;;;;60.80;25.42;;;;;;;;;;5015417;28;20056;-80
2023/02/07 02:38:00;;;;;;;55.83;22.93;;;;;;;;;;5004825;28;20052;-80
2023/02/07 02:40:33;;;;;;;73.80;25.17;;;;;;;;;;5036569;28;20046;-78
2023/02/07 02:43:05;;;;;;;66.47;26.53;;;;;;;;;;5036320;28;20029;-79
2023/02/07 02:45:34;;;;;;;;;;;;;;;;;;5036955;28;20083;-80
2023/02/07 02:48:01;;;;;;;63.17;23.77;;;;;;;;;;5035052;28;20257;-79
2023/02/07 02:50:29;;;;;;;53.10;24.10;;;;;;;;;;5035718;28;20029;-79
2023/02/07 02:52:54;;;;;;;69.97;25.87;;;;;;;;;;5037197;28;20315;-80
2023/02/07 02:55:36;;;;;;;55.17;26.03;;;;;;;;;;5036910;28;20036;-81
2023/02/07 02:58:41;;;;;;;59.97;26.23;;;;;;;;;;5035941;28;20064;-81
2023/02/07 03:01:28;;;;;;;59.27;24.90;;;;;;;;;;4994611;28;20539;-82
2023/02/07 03:03:58;;;;;;;57.93;27.23;;;;;;;;;;5034386;28;20033;-79
2023/02/07 03:06:36;;;;;;;62.47;26.17;;;;;;;;;;5035393;28;20041;-79
2023/02/07 03:09:24;;;;;;;60.93;28.03;;;;;;;;;;5034492;28;20420;-79
2023/02/07 03:12:10;;;;;;;63.77;26.90;;;;;;;;;;5033653;28;20112;-79
2023/02/07 03:14:51;;;;;;;62.13;25.70;;;;;;;;;;5034778;28;20044;-78
2023/02/07 03:17:33;;;;;;;58.53;24.10;;;;;;;;;;5035142;28;20048;-79
2023/02/07 03:20:29;;;;;;;71.17;27.97;;;;;;;;;;5035093;28;20044;-79
2023/02/07 03:22:58;;;;;;;63.17;23.97;;;;;;;;;;5017812;28;20061;-80
2023/02/07 03:25:27;;;;;;;50.67;23.13;;;;;;;;;;5033633;28;20036;-79
2023/02/07 03:27:54;;;;;;;65.83;25.83;;;;;;;;;;5033943;28;20028;-80
2023/02/07 03:30:23;;;;;;;57.50;23.77;;;;;;;;;;5034170;28;20096;-82
2023/02/07 03:32:53;;;;;;;77.90;24.80;;;;;;;;;;5033182;28;20125;-79
2023/02/07 03:35:26;;;;;;;63.33;25.17;;;;;;;;;;5031919;28;20131;-79
2023/02/07 03:37:55;;;;;;;56.33;24.67;;;;;;;;;;5031931;28;20133;-79
2023/02/07 03:40:23;;;;;;;67.57;26.10;;;;;;;;;;5034099;28;20441;-79
2023/02/07 03:42:54;;;;;;;57.13;23.60;;;;;;;;;;5035353;28;20032;-77
2023/02/07 03:45:20;;;;;;;57.00;22.73;;;;;;;;;;5034180;28;20085;-80
2023/02/07 03:47:46;;;;;;;54.17;24.00;;;;;;;;;;5034086;28;20390;-80
2023/02/07 03:50:12;;;;;;;58.60;24.27;;;;;;;;;;5034354;28;20068;-81
2023/02/07 03:52:38;;;;;;;59.47;24.07;;;;;;;;;;5034764;28;20491;-79
2023/02/07 03:55:04;;;;;;;54.83;22.23;;;;;;;;;;5033528;28;20144;-79
2023/02/07 03:57:30;;;;;;;60.30;23.83;;;;;;;;;;5034430;28;20544;-79
2023/02/07 03:59:55;;;;;;;66.00;25.70;;;;;;;;;;5034698;28;20155;-79
2023/02/07 04:02:21;;;;;;;55.73;25.37;;;;;;;;;;5034830;28;20104;-79
2023/02/07 04:04:46;;;;;;;62.87;25.20;;;;;;;;;;5032868;28;20478;-80
2023/02/07 04:07:12;;;;;;;55.37;24.70;;;;;;;;;;5035023;28;20033;-81
2023/02/07 04:09:38;;;;;;;66.00;26.10;;;;;;;;;;5033328;28;20021;-80
2023/02/07 04:12:03;;;;;;;66.97;26.70;;;;;;;;;;5035678;28;20026;-79
2023/02/07 04:14:32;;;;;;;62.23;23.00;;;;;;;;;;5036434;28;20029;-78
2023/02/07 04:16:58;;;;;;;66.07;25.40;;;;;;;;;;5050552;28;20021;-80
2023/02/07 04:19:24;;;;;;;65.27;26.77;;;;;;;;;;5034070;28;20076;-81
2023/02/07 04:21:49;;;;;;;64.83;27.10;;;;;;;;;;5034015;28;20029;-79
2023/02/07 04:24:15;;;;;;;52.50;24.97;;;;;;;;;;5036370;28;20572;-79
2023/02/07 04:26:41;;;;;;;61.87;25.43;;;;;;;;;;5035317;28;20029;-79
2023/02/07 04:29:07;;;;;;;69.43;26.20;;;;;;;;;;5035844;28;20045;-79
2023/02/07 04:31:32;;;;;;;79.43;23.53;;;;;;;;;;5034906;28;20422;-80
2023/02/07 04:33:58;;;;;;;59.17;26.00;;;;;;;;;;5033321;28;20465;-78
2023/02/07 04:36:23;;;;;;;62.87;25.17;;;;;;;;;;5034175;28;20430;-81
2023/02/07 04:38:49;;;;;;;57.23;26.60;;;;;;;;;;5024079;28;20045;-78
2023/02/07 04:41:14;;;;;;;61.50;25.33;;;;;;;;;;5029915;28;20034;-80
2023/02/07 04:43:40;;;;;;;63.50;23.37;;;;;;;;;;5014658;28;20033;-80
2023/02/07 04:46:06;;;;;;;66.00;26.30;;;;;;;;;;5013392;28;20352;-81
2023/02/07 04:48:32;;;;;;;65.87;28.87;;;;;;;;;;5013383;28;20531;-79
2023/02/07 04:50:58;;;;;;;67.37;26.37;;;;;;;;;;5012522;28;20026;-79
2023/02/07 04:53:23;;;;;;;48.13;21.30;;;;;;;;;;5011916;28;20083;-80
2023/02/07 04:55:51;;;;;;;50.40;23.23;;;;;;;;;;5012840;28;20512;-80
2023/02/07 04:58:17;;;;;;;45.50;19.63;;;;;;;;;;5013074;28;20033;-79
2023/02/07 05:00:43;;;;;;;60.17;22.43;;;;;;;;;;5011836;28;20489;-80
2023/02/07 05:03:08;;;;;;;55.83;24.97;;;;;;;;;;5013158;28;20037;-81
2023/02/07 05:05:40;;;;;;;63.67;25.27;;;;;;;;;;5011220;28;20557;-80
2023/02/07 05:08:06;;;;;;;61.33;25.23;;;;;;;;;;5011009;28;20046;-81
2023/02/07 05:10:32;;;;;;;58.27;24.23;;;;;;;;;;5013449;28;20026;-78
2023/02/07 05:12:58;;;;;;;58.00;22.90;;;;;;;;;;5013166;28;20036;-79
2023/02/07 05:15:23;;;;;;;56.03;23.77;;;;;;;;;;5011847;28;20029;-80
2023/02/07 05:17:51;;;;;;;59.87;22.73;;;;;;;;;;5011747;28;20033;-80
2023/02/07 05:20:17;;;;;;;62.53;22.97;;;;;;;;;;5024736;28;20496;-79
2023/02/07 05:22:42;;;;;;;58.57;23.33;;;;;;;;;;5032459;28;20033;-80
2023/02/07 05:25:08;;;;;;;64.40;25.07;;;;;;;;;;5032383;28;20031;-81
2023/02/07 05:27:33;;;;;;;64.10;22.47;;;;;;;;;;5031973;28;20029;-79
2023/02/07 05:29:59;;;;;;;68.73;26.23;;;;;;;;;;5033196;28;20321;-79
2023/02/07 05:35:08;;;;;;;66.13;23.80;;;;;;;;;;5032423;28;20028;-80
2023/02/07 05:37:34;;;;;;;58.83;22.23;;;;;;;;;;5020812;28;20037;-78
2023/02/07 05:39:59;;;;;;;68.43;23.87;;;;;;;;;;5020788;28;20745;-78
2023/02/07 05:42:25;;;;;;;48.60;21.67;;;;;;;;;;5017410;28;20583;-78
2023/02/07 05:44:50;;;;;;;62.67;23.23;;;;;;;;;;5019806;28;20029;-76
2023/02/07 05:47:16;;;;;;;70.80;27.13;;;;;;;;;;5011088;28;20056;-76
2023/02/07 05:49:41;;;;;;;58.17;24.00;;;;;;;;;;5009817;28;20603;-76
2023/02/07 05:52:08;;;;;;;55.23;22.60;;;;;;;;;;5010948;28;20504;-76
2023/02/07 05:54:34;;;;;;;64.70;24.87;;;;;;;;;;5010323;28;20021;-79
2023/02/07 05:56:59;;;;;;;57.93;23.37;;;;;;;;;;5012894;28;20533;-78
2023/02/07 05:59:26;;;;;;;58.07;25.20;;;;;;;;;;5013754;28;20433;-78
2023/02/07 06:01:51;;;;;;;65.67;26.03;;;;;;;;;;5023903;28;20112;-77
2023/02/07 06:04:18;;;;;;;58.17;23.80;;;;;;;;;;5020143;28;20030;-77
2023/02/07 06:06:43;;;;;;;58.17;24.30;;;;;;;;;;5027375;28;20021;-77
2023/02/07 06:09:09;;;;;;;62.27;25.53;;;;;;;;;;5015014;28;20030;-79
2023/02/07 06:11:35;;;;;;;63.03;24.40;;;;;;;;;;5014413;28;20435;-78
2023/02/07 06:14:01;;;;;;;63.30;26.80;;;;;;;;;;5015289;28;20033;-78
2023/02/07 06:16:27;;;;;;;53.63;22.50;;;;;;;;;;5018378;28;20033;-77
2023/02/07 06:18:52;;;;;;;56.97;22.63;;;;;;;;;;5015974;28;20030;-78
2023/02/07 06:21:18;;;;;;;63.87;27.03;;;;;;;;;;5034117;28;20033;-78
2023/02/07 06:23:45;;;;;;;58.43;21.30;;;;;;;;;;5010965;28;20117;-79
2023/02/07 06:26:11;;;;;;;64.33;23.73;;;;;;;;;;5020952;28;20457;-78
2023/02/07 06:28:37;;;;;;;55.60;23.57;;;;;;;;;;5022441;28;20115;-81
2023/02/07 06:31:02;;;;;;;60.67;22.70;;;;;;;;;;5035278;28;20037;-80
2023/02/07 06:33:28;;;;;;;51.33;23.83;;;;;;;;;;5019191;28;20087;-80
2023/02/07 06:35:54;;;;;;;54.63;24.87;;;;;;;;;;5039393;28;20021;-77
2023/02/07 06:38:20;;;;;;;67.00;23.50;;;;;;;;;;5028132;28;20033;-80
2023/02/07 06:40:47;;;;;;;59.00;23.93;;;;;;;;;;5021713;28;20118;-79
2023/02/07 06:43:13;;;;;;;53.97;22.00;;;;;;;;;;5031885;28;20120;-79
2023/02/07 06:45:39;;;;;;;59.20;23.67;;;;;;;;;;5030632;28;20033;-79
2023/02/07 06:48:04;;;;;;;65.83;25.77;;;;;;;;;;5026112;28;20048;-78
2023/02/07 06:50:30;;;;;;;52.93;25.33;;;;;;;;;;5032715;28;20120;-79
2023/02/07 06:53:00;;;;;;;51.30;23.67;;;;;;;;;;5033280;28;20029;-80
2023/02/07 06:55:27;;;;;;;63.27;23.00;;;;;;;;;;5028942;28;20041;-79
2023/02/07 06:57:53;;;;;;;61.33;24.50;;;;;;;;;;5027171;28;20043;-81
2023/02/07 07:00:20;;;;;;;55.53;25.73;;;;;;;;;;5028308;28;20132;-82
2023/02/07 07:02:46;;;;;;;60.57;24.47;;;;;;;;;;5025252;28;20512;-81
2023/02/07 07:05:12;;;;;;;58.33;24.43;;;;;;;;;;5018134;28;20026;-79
2023/02/07 07:07:38;;;;;;;60.37;24.07;;;;;;;;;;5024837;28;20033;-80
2023/02/07 07:10:04;;;;;;;63.07;24.43;;;;;;;;;;5002950;28;20470;-76
2023/02/07 07:12:29;;;;;;;67.27;26.97;;;;;;;;;;5019856;28;20032;-80
2023/02/07 07:14:55;;;;;;;53.90;24.50;;;;;;;;;;5031149;28;20026;-79
2023/02/07 07:17:20;;;;;;;60.10;25.03;;;;;;;;;;5022791;28;20194;-80
2023/02/07 07:19:46;;;;;;;61.97;26.60;;;;;;;;;;5026431;28;20029;-80
2023/02/07 07:22:12;;;;;;;52.63;23.43;;;;;;;;;;5024355;28;20025;-80
2023/02/07 07:24:39;;;;;;;69.00;24.97;;;;;;;;;;5027118;28;20409;-78
2023/02/07 07:27:04;;;;;;;65.87;25.73;;;;;;;;;;5027406;28;20116;-80
2023/02/07 07:29:29;;;;;;;62.47;25.37;;;;;;;;;;5022868;28;20542;-79
2023/02/07 07:31:56;;;;;;;63.27;26.00;;;;;;;;;;5024813;28;20038;-80
2023/02/07 07:34:22;;;;;;;56.83;25.00;;;;;;;;;;5028013;28;20075;-77
2023/02/07 07:36:47;;;;;;;79.63;26.90;;;;;;;;;;5019295;28;20065;-78
2023/02/07 07:39:13;;;;;;;57.33;24.70;;;;;;;;;;5028248;28;20039;-78
2023/02/07 07:41:39;;;;;;;68.57;27.47;;;;;;;;;;5028512;28;20426;-79
2023/02/07 07:44:05;;;;;;;64.47;27.27;;;;;;;;;;5027022;28;20052;-80
2023/02/07 07:46:30;;;;;;;60.60;25.60;;;;;;;;;;5043945;28;20060;-79
2023/02/07 07:48:56;;;;;;;55.33;25.77;;;;;;;;;;5013715;28;20056;-80
2023/02/07 07:51:22;;;;;;;66.43;27.33;;;;;;;;;;5020595;28;20025;-78
2023/02/07 07:53:47;;;;;;;53.03;25.47;;;;;;;;;;5027094;28;20104;-79
2023/02/07 07:56:13;;;;;;;71.67;25.90;;;;;;;;;;5026146;28;20037;-78
2023/02/07 07:58:39;;;;;;;57.73;25.77;;;;;;;;;;5013020;28;20453;-78
2023/02/07 08:01:04;;;;;;;62.57;27.10;;;;;;;;;;5020067;28;20117;-86
2023/02/07 08:03:31;;;;;;;58.97;26.33;;;;;;;;;;5033532;28;20089;-85
2023/02/07 08:05:56;;;;;;;66.47;26.27;;;;;;;;;;5023770;28;20083;-83
2023/02/07 08:08:22;;;;;;;72.13;26.97;;;;;;;;;;5023788;28;20088;-80
2023/02/07 08:10:48;;;;;;;65.77;25.20;;;;;;;;;;5028845;28;20122;-83
2023/02/07 08:13:15;;;;;;;78.60;29.03;;;;;;;;;;5027231;28;20533;-83
2023/02/07 08:15:42;;;;;;;64.33;25.97;;;;;;;;;;5022137;28;20362;-83
2023/02/07 08:18:08;;;;;;;64.93;26.10;;;;;;;;;;5023855;28;20292;-83
2023/02/07 08:20:36;;;;;;;65.57;26.97;;;;;;;;;;5021410;28;20034;-83
2023/02/07 08:23:02;;;;;;;68.43;28.77;;;;;;;;;;5017018;28;20036;-81
2023/02/07 08:25:29;;;;;;;70.70;27.27;;;;;;;;;;5017314;28;20681;-81
2023/02/07 08:27:54;;;;;;;55.63;25.20;;;;;;;;;;5018006;28;20068;-82
2023/02/07 08:30:21;;;;;;;72.63;27.43;;;;;;;;;;5029530;28;20069;-81
2023/02/07 08:32:46;;;;;;;67.83;27.43;;;;;;;;;;5024370;28;20520;-84
2023/02/07 08:35:13;;;;;;;80.20;29.50;;;;;;;;;;5018315;28;20374;-83
2023/02/07 08:37:38;;;;;;;69.87;28.37;;;;;;;;;;5041395;28;20140;-84
2023/02/07 08:40:05;;;;;;;78.57;29.27;;;;;;;;;;5013281;28;20486;-83
2023/02/07 08:42:32;;;;;;;62.00;26.13;;;;;;;;;;5029045;28;20037;-81
2023/02/07 08:44:58;;;;;;;69.53;27.23;;;;;;;;;;5026792;28;20124;-80
2023/02/07 08:47:25;;;;;;;67.67;28.43;;;;;;;;;;5028177;28;20037;-82
2023/02/07 08:49:50;;;;;;;80.70;30.30;;;;;;;;;;5032649;28;20112;-81
2023/02/07 08:52:17;;;;;;;67.10;27.70;;;;;;;;;;5029266;28;20030;-83
2023/02/07 08:54:43;;;;;;;81.00;30.93;;;;;;;;;;5028161;28;20036;-82
2023/02/07 08:57:09;;;;;;;65.80;28.70;;;;;;;;;;5026439;28;20037;-83
2023/02/07 08:59:36;;;;;;;60.70;27.00;;;;;;;;;;5026337;28;20026;-81
2023/02/07 09:02:04;;;;;;;74.67;29.43;;;;;;;;;;5031414;28;20522;-82
2023/02/07 09:04:30;;;;;;;74.33;28.77;;;;;;;;;;5020584;28;20399;-82
2023/02/07 09:06:55;;;;;;;65.90;26.47;;;;;;;;;;5041295;28;20120;-80
2023/02/07 09:09:21;;;;;;;68.43;27.93;;;;;;;;;;5041334;28;20806;-80
2023/02/07 09:11:46;;;;;;;77.70;28.73;;;;;;;;;;5033617;28;20428;-81
2023/02/07 09:14:12;;;;;;;68.27;29.17;;;;;;;;;;5028405;28;20071;-80
2023/02/07 09:16:37;;;;;;;72.23;28.27;;;;;;;;;;5025129;28;20022;-87
2023/02/07 09:19:16;;;;;;;76.20;30.07;;;;;;;;;;5034408;28;20045;-83
2023/02/07 09:21:42;;;;;;;67.13;27.67;;;;;;;;;;5010947;28;20030;-82
2023/02/07 09:24:07;;;;;;;62.77;27.47;;;;;;;;;;5024631;28;20078;-84
2023/02/07 09:26:34;;;;;;;71.77;29.50;;;;;;;;;;5035059;28;20056;-84
2023/02/07 09:29:00;;;;;;;72.90;27.63;;;;;;;;;;5030747;28;20052;-82
2023/02/07 09:31:26;;;;;;;62.17;25.13;;;;;;;;;;5023431;28;20026;-80
2023/02/07 09:33:51;;;;;;;60.97;27.30;;;;;;;;;;5026111;28;20029;-78
2023/02/07 09:36:19;;;;;;;71.97;30.67;;;;;;;;;;5024940;28;20030;-80
2023/02/07 09:38:57;;;;;;;72.77;30.27;;;;;;;;;;5037031;28;20077;-80
2023/02/07 09:41:29;;;;;;;88.67;36.17;;;;;;;;;;5014585;28;20068;-80
2023/02/07 09:43:58;;;;;;;69.57;29.70;;;;;;;;;;5025868;28;20148;-80
2023/02/07 09:46:35;;;;;;;71.03;28.77;;;;;;;;;;5026446;28;20026;-80
2023/02/07 09:49:16;;;;;;;77.67;32.43;;;;;;;;;;5029094;28;20796;-82
2023/02/07 09:51:43;;;;;;;78.23;30.13;;;;;;;;;;5030094;28;20012;-80
2023/02/07 09:54:32;;;;;;;75.90;31.33;;;;;;;;;;5019467;28;20037;-81
2023/02/07 09:57:02;;;;;;;80.07;31.03;;;;;;;;;;5025617;28;20029;-80
2023/02/07 09:59:52;;;;;;;77.00;31.80;;;;;;;;;;5018163;28;20121;-80
2023/02/07 10:02:28;;;;;;;77.30;31.07;;;;;;;;;;5024913;28;20089;-85
2023/02/07 10:05:01;;;;;;;71.73;31.77;;;;;;;;;;5025061;28;20026;-84
2023/02/07 10:07:27;;;;;;;71.83;27.57;;;;;;;;;;5020414;28;20061;-84
2023/02/07 10:09:53;;;;;;;69.90;29.37;;;;;;;;;;5027021;28;20029;-80
2023/02/07 10:12:43;;;;;;;74.97;29.37;;;;;;;;;;5022181;28;20016;-81
2023/02/07 10:15:26;;;;;;;80.93;29.60;;;;;;;;;;5035206;28;20123;-83
2023/02/07 10:18:06;;;;;;;82.00;30.13;;;;;;;;;;5033910;28;20067;-81
2023/02/07 10:20:39;;;;;;;67.40;28.33;;;;;;;;;;5037747;28;20418;-81
2023/02/07 10:23:36;;;;;;;73.10;29.90;;;;;;;;;;5022679;28;20781;-82
2023/02/07 10:26:33;;;;;;;72.00;29.23;;;;;;;;;;5042507;28;20087;-81
2023/02/07 10:29:23;;;;;;;72.90;27.57;;;;;;;;;;5041755;28;20029;-82
2023/02/07 10:31:53;;;;;;;59.97;27.00;;;;;;;;;;5022702;28;20084;-83
2023/02/07 10:34:34;;;;;;;61.97;27.93;;;;;;;;;;5017975;28;20044;-84
2023/02/07 10:37:10;;;;;;;73.23;27.93;;;;;;;;;;5019274;28;20046;-84
2023/02/07 10:39:47;;;;;;;68.73;27.33;;;;;;;;;;5024773;28;20056;-84
2023/02/07 10:42:15;;;;;;;65.63;26.40;;;;;;;;;;5020722;28;20492;-82
2023/02/07 10:44:41;;;;;;;68.77;26.67;;;;;;;;;;5026215;28;20532;-85
2023/02/07 10:47:14;;;;;;;64.83;26.73;;;;;;;;;;5032756;28;20125;-85
2023/02/07 10:49:39;;;;;;;;;;;;;;;;;;5027596;28;21054;-86
2023/02/07 10:52:26;;;;;;;55.10;23.70;;;;;;;;;;5024222;28;19917;-86
2023/02/07 10:54:55;;;;;;;73.03;25.73;;;;;;;;;;5029205;28;20029;-83
2023/02/07 10:57:21;;;;;;;56.50;25.53;;;;;;;;;;5031219;28;20026;-85
2023/02/07 10:59:49;;;;;;;67.60;25.73;;;;;;;;;;5038532;28;20105;-83
2023/02/07 11:02:27;;;;;;;60.90;24.97;;;;;;;;;;5026542;28;20048;-85
2023/02/07 11:04:52;;;;;;;56.73;24.33;;;;;;;;;;5026375;28;20101;-87
2023/02/07 11:07:20;;;;;;;66.37;25.17;;;;;;;;;;5033382;28;20030;-86
2023/02/07 11:09:46;;;;;;;62.30;22.30;;;;;;;;;;5021223;28;20030;-84
2023/02/07 11:12:20;;;;;;;58.37;21.77;;;;;;;;;;5029994;28;20037;-84
2023/02/07 11:15:13;;;;;;;69.37;26.97;;;;;;;;;;5019386;28;20424;-84
2023/02/07 11:17:45;;;;;;;49.77;22.73;;;;;;;;;;5034919;28;20364;-86
2023/02/07 11:20:26;;;;;;;56.10;23.30;;;;;;;;;;5027327;28;20025;-87
2023/02/07 11:22:53;;;;;;;70.27;23.50;;;;;;;;;;5029106;28;20034;-82
2023/02/07 11:25:32;;;;;;;62.53;23.90;;;;;;;;;;5023611;28;20029;-84
2023/02/07 11:27:58;;;;;;;60.80;24.07;;;;;;;;;;5048947;28;20099;-84
2023/02/07 11:30:28;;;;;;;54.30;23.43;;;;;;;;;;5039175;28;20069;-83
2023/02/07 11:33:00;;;;;;;55.50;23.80;;;;;;;;;;5019279;28;20044;-83
2023/02/07 11:35:27;;;;;;;52.80;22.77;;;;;;;;;;5030773;28;20351;-85
2023/02/07 11:38:13;;;;;;;56.50;21.17;;;;;;;;;;5038750;28;20056;-82
2023/02/07 11:40:42;;;;;;;49.13;20.83;;;;;;;;;;5031633;28;20431;-83
2023/02/07 11:43:11;;;;;;;47.47;19.93;;;;;;;;;;5036135;28;20029;-82
2023/02/07 11:45:39;;;;;;;50.60;20.20;;;;;;;;;;5035417;28;20452;-84
2023/02/07 11:48:06;;;;;;;48.20;19.93;;;;;;;;;;5030965;28;20025;-84
2023/02/07 11:50:40;;;;;;;59.50;22.07;;;;;;;;;;5034894;28;20307;-85
2023/02/07 11:53:15;;;;;;;55.00;21.93;;;;;;;;;;5024397;28;20095;-84
2023/02/07 11:55:43;;;;;;;51.43;21.17;;;;;;;;;;5030279;28;20378;-85
2023/02/07 11:58:22;;;;;;;46.40;20.77;;;;;;;;;;5026268;28;20053;-83
2023/02/07 12:00:49;;;;;;;45.87;18.83;;;;;;;;;;5050435;28;20503;-83
2023/02/07 12:03:22;;;;;;;56.27;20.47;;;;;;;;;;5027085;28;20037;-83
2023/02/07 12:05:52;;;;;;;41.50;17.40;;;;;;;;;;5032274;28;20021;-84
2023/02/07 12:08:23;;;;;;;49.73;19.43;;;;;;;;;;5032727;28;20037;-86
2023/02/07 12:10:54;;;;;;;49.13;19.67;;;;;;;;;;5036454;28;20028;-86
2023/02/07 12:13:45;;;;;;;46.00;19.38;;;;;;;;;;5033234;28;20838;-85
2023/02/07 12:16:28;;;;;;;46.23;18.17;;;;;;;;;;5034973;28;20029;-84
2023/02/07 12:19:03;;;;;;;46.70;18.30;;;;;;;;;;5036385;28;20037;-83
2023/02/07 12:21:44;;;;;;;38.67;16.13;;;;;;;;;;5032716;28;20040;-83
2023/02/07 12:24:41;;;;;;;42.60;17.17;;;;;;;;;;5033776;28;20029;-83
2023/02/07 12:27:17;;;;;;;39.80;16.83;;;;;;;;;;5029026;28;20048;-82
2023/02/07 12:30:03;;;;;;;37.73;16.93;;;;;;;;;;5032138;28;20454;-81
2023/02/07 12:32:54;;;;;;;43.03;15.80;;;;;;;;;;5031391;28;20056;-83
2023/02/07 12:35:42;;;;;;;46.47;19.47;;;;;;;;;;5019991;28;20065;-83
2023/02/07 12:38:10;;;;;;;37.33;14.37;;;;;;;;;;5022974;28;20060;-82
2023/02/07 12:41:01;;;;;;;34.67;14.07;;;;;;;;;;5033226;28;20338;-82
2023/02/07 12:43:32;;;;;;;43.93;16.83;;;;;;;;;;5023096;28;20045;-84
2023/02/07 12:46:01;;;;;;;35.13;16.58;;;;;;;;;;5043990;28;20037;-82
2023/02/07 12:48:35;;;;;;;37.87;17.17;;;;;;;;;;5041296;28;20037;-81
2023/02/07 12:51:16;;;;;;;36.03;16.53;;;;;;;;;;5028121;28;20034;-83
2023/02/07 12:53:52;;;;;;;32.23;14.80;;;;;;;;;;5033371;28;20438;-80
2023/02/07 12:57:02;;;;;;;39.63;17.53;;;;;;;;;;5027775;28;20026;-86
2023/02/07 12:59:30;;;;;;;38.50;17.07;;;;;;;;;;5041670;28;20029;-82
2023/02/07 13:02:30;;;;;;;42.10;18.97;;;;;;;;;;5036467;28;20040;-82
2023/02/07 13:05:14;;;;;;;46.20;18.47;;;;;;;;;;5027813;28;20104;-80
2023/02/07 13:08:01;;;;;;;46.43;19.30;;;;;;;;;;5028596;28;20381;-83
2023/02/07 13:10:44;;;;;;;43.37;18.50;;;;;;;;;;5024871;28;20131;-81
2023/02/07 13:13:15;;;;;;;41.50;17.03;;;;;;;;;;5032920;28;20034;-84
2023/02/07 13:16:08;;;;;;;38.87;17.17;;;;;;;;;;5029201;28;20033;-83
2023/02/07 13:18:40;;;;;;;35.83;15.73;;;;;;;;;;5033907;28;20072;-82
2023/02/07 13:21:25;;;;;;;44.80;17.57;;;;;;;;;;5022522;28;20030;-81
2023/02/07 13:24:05;;;;;;;38.93;16.43;;;;;;;;;;5018158;28;20040;-79
2023/02/07 13:26:33;;;;;;;41.13;17.37;;;;;;;;;;5039240;28;20035;-81
2023/02/07 13:29:11;;;;;;;46.80;19.03;;;;;;;;;;5022635;28;20042;-81
2023/02/07 13:31:38;;;;;;;44.93;16.83;;;;;;;;;;5027514;28;20124;-81
2023/02/07 13:34:07;;;;;;;45.97;19.07;;;;;;;;;;5021876;28;20037;-79
2023/02/07 13:36:51;;;;;;;50.53;19.37;;;;;;;;;;5021541;28;20059;-80
2023/02/07 13:39:44;;;;;;;43.70;18.83;;;;;;;;;;5027554;28;20045;-81
2023/02/07 13:42:25;;;;;;;51.83;20.10;;;;;;;;;;5016217;28;20044;-81
2023/02/07 13:45:17;;;;;;;47.67;19.87;;;;;;;;;;5023995;28;20021;-78
2023/02/07 13:48:21;;;;;;;45.97;20.75;;;;;;;;;;5011461;28;20121;-81
2023/02/07 13:50:53;;;;;;;52.97;20.87;;;;;;;;;;4967312;28;20538;-81
2023/02/07 13:53:38;;;;;;;57.65;22.45;;;;;;;;;;4948422;28;20544;-81
2023/02/07 14:01:56;;;;;;;51.57;23.07;;;;;;;;;;5027509;28;20666;-84
2023/02/07 14:04:44;;;;;;;60.20;21.97;;;;;;;;;;5041975;28;20218;-82
2023/02/07 14:07:23;;;;;;;49.07;21.77;;;;;;;;;;5020164;28;20044;-83
2023/02/07 14:09:49;;;;;;;53.70;22.73;;;;;;;;;;5030589;28;20100;-83
2023/02/07 14:12:31;;;;;;;59.70;23.97;;;;;;;;;;5023859;28;20100;-80
2023/02/07 14:15:19;;;;;;;50.23;23.43;;;;;;;;;;5032777;28;20393;-82
2023/02/07 14:17:55;;;;;;;42.83;19.27;;;;;;;;;;5028349;28;20052;-82
2023/02/07 14:20:36;;;;;;;42.83;18.33;;;;;;;;;;5034494;28;20060;-87
2023/02/07 14:23:06;;;;;;;49.40;18.80;;;;;;;;;;5028426;28;20045;-83
2023/02/07 14:25:40;;;;;;;35.00;16.10;;;;;;;;;;5032473;28;20124;-82
2023/02/07 14:28:38;;;;;;;41.50;17.77;;;;;;;;;;5049849;28;20029;-81
2023/02/07 14:31:18;;;;;;;44.43;19.00;;;;;;;;;;5031421;28;20028;-81
2023/02/07 14:34:10;;;;;;;33.70;16.97;;;;;;;;;;5030822;28;20099;-81
2023/02/07 14:36:36;;;;;;;37.00;17.37;;;;;;;;;;5028059;28;20037;-83
2023/02/07 14:39:32;;;;;;;36.60;16.00;;;;;;;;;;5027722;28;20044;-87
2023/02/07 14:42:20;;;;;;;38.80;15.53;;;;;;;;;;5023738;28;20076;-87
2023/02/07 14:44:48;;;;;;;29.47;14.90;;;;;;;;;;5025337;28;20060;-86
2023/02/07 14:47:25;;;;;;;34.70;15.87;;;;;;;;;;5015782;28;20124;-81
2023/02/07 14:49:55;;;;;;;43.23;15.63;;;;;;;;;;5028802;28;20025;-81